^^
Your Local Weather - Clay, NY Station Historical Data
Daily Summary for March 20, 2017 Units:  English    Metric   Both
« Previous Day
Next Day »
Daily Weekly Monthly Yearly Custom
  High: Low: Average:
Temperature: 40.4 °F 17.2 °F 29.9 °F
Dew Point: 29.3 °F 14.5 °F 23.8 °F
Humidity: 91% 63% 79%
Wind Speed: 3.0mph 0.0mph 0.3mph
Wind Gust: 6.0mph - -
Wind- - SW
Pressure: 30.24 in 30.00 in -
Precipitation: 0.00 in    
Historical Graphs
 
 
Tabular Data for March 20, 2017
Time Temperature Dew Point Pressure Wind Wind Speed Wind Gust Humidity Rainfall Rate (Hourly) solar
00:02 24.1 °F 20.2 °F 30.24 in Calm     85% 0.00 in 0 W/m2
00:08 24.1 °F 20.2 °F 30.24 in Calm     85% 0.00 in 0 W/m2
00:14 23.9 °F 20.0 °F 30.23 in Calm     85% 0.00 in 0 W/m2
00:20 23.8 °F 19.9 °F 30.23 in Calm     85% 0.00 in 0 W/m2
00:26 23.8 °F 20.2 °F 30.23 in Calm     86% 0.00 in 0 W/m2
00:32 24.0 °F 20.4 °F 30.23 in Calm     86% 0.00 in 0 W/m2
00:38 23.6 °F 20.0 °F 30.23 in Calm     86% 0.00 in 0 W/m2
00:44 23.6 °F 20.0 °F 30.23 in Calm     86% 0.00 in 0 W/m2
00:50 23.4 °F 19.8 °F 30.23 in Calm     86% 0.00 in 0 W/m2
00:56 22.8 °F 19.2 °F 30.23 in Calm     86% 0.00 in 0 W/m2
01:02 22.4 °F 18.8 °F 30.23 in Calm     86% 0.00 in 0 W/m2
01:08 22.0 °F 18.5 °F 30.23 in Calm     86% 0.00 in 0 W/m2
01:14 21.7 °F 18.2 °F 30.23 in Calm     86% 0.00 in 0 W/m2
01:20 21.4 °F 17.9 °F 30.22 in Calm     86% 0.00 in 0 W/m2
01:26 21.1 °F 17.6 °F 30.22 in Calm     86% 0.00 in 0 W/m2
01:32 20.9 °F 17.6 °F 30.22 in Calm     87% 0.00 in 0 W/m2
01:38 20.7 °F 17.4 °F 30.22 in Calm     87% 0.00 in 0 W/m2
01:44 20.7 °F 17.4 °F 30.21 in Calm     87% 0.00 in 0 W/m2
01:50 20.8 °F 17.5 °F 30.21 in Calm     87% 0.00 in 0 W/m2
02:03 20.5 °F 17.2 °F 30.21 in Calm     87% 0.00 in 0 W/m2
02:08 20.2 °F 17.0 °F 30.21 in Calm     87% 0.00 in 0 W/m2
02:14 19.9 °F 16.7 °F 30.21 in Calm     87% 0.00 in 0 W/m2
02:20 19.6 °F 16.4 °F 30.21 in Calm     87% 0.00 in 0 W/m2
02:26 19.4 °F 16.2 °F 30.20 in Calm     87% 0.00 in 0 W/m2
02:32 19.4 °F 16.4 °F 30.20 in Calm     88% 0.00 in 0 W/m2
02:38 19.1 °F 16.1 °F 30.20 in Calm     88% 0.00 in 0 W/m2
02:42 19.1 °F 16.1 °F 30.20 in Calm     88% 0.00 in 0 W/m2
02:48 19.1 °F 16.1 °F 30.20 in Calm     88% 0.00 in 0 W/m2
02:54 19.1 °F 16.1 °F 30.20 in Calm     88% 0.00 in 0 W/m2
03:00 18.8 °F 15.8 °F 30.20 in Calm     88% 0.00 in 0 W/m2
03:06 18.6 °F 15.6 °F 30.20 in Calm     88% 0.00 in 0 W/m2
03:12 18.5 °F 15.5 °F 30.20 in Calm     88% 0.00 in 0 W/m2
03:18 18.3 °F 15.3 °F 30.20 in Calm     88% 0.00 in 0 W/m2
03:24 18.3 °F 15.6 °F 30.19 in Calm     89% 0.00 in 0 W/m2
03:30 18.5 °F 15.8 °F 30.19 in Calm     89% 0.00 in 0 W/m2
03:36 18.4 °F 15.7 °F 30.20 in Calm     89% 0.00 in 0 W/m2
03:42 18.3 °F 15.6 °F 30.20 in Calm     89% 0.00 in 0 W/m2
03:48 18.4 °F 15.7 °F 30.20 in Calm     89% 0.00 in 0 W/m2
03:54 18.4 °F 15.7 °F 30.20 in Calm     89% 0.00 in 0 W/m2
04:00 18.2 °F 15.5 °F 30.20 in Calm     89% 0.00 in 0 W/m2
04:06 18.0 °F 15.3 °F 30.20 in Calm     89% 0.00 in 0 W/m2
04:12 17.7 °F 15.0 °F 30.20 in Calm     89% 0.00 in 0 W/m2
04:18 17.6 °F 14.9 °F 30.20 in Calm     89% 0.00 in 0 W/m2
04:24 17.6 °F 14.9 °F 30.20 in Calm     89% 0.00 in 0 W/m2
04:30 17.4 °F 14.7 °F 30.20 in Calm     89% 0.00 in 0 W/m2
04:36 17.2 °F 14.5 °F 30.20 in Calm     89% 0.00 in 0 W/m2
04:42 17.2 °F 14.5 °F 30.21 in Calm     89% 0.00 in 0 W/m2
04:48 17.3 °F 14.6 °F 30.21 in Calm     89% 0.00 in 0 W/m2
04:54 17.3 °F 14.6 °F 30.21 in Calm     89% 0.00 in 0 W/m2
05:00 17.3 °F 14.6 °F 30.21 in Calm     89% 0.00 in 0 W/m2
05:06 17.2 °F 14.5 °F 30.21 in Calm     89% 0.00 in 0 W/m2
05:12 17.3 °F 14.6 °F 30.21 in Calm     89% 0.00 in 0 W/m2
05:18 17.5 °F 14.8 °F 30.21 in Calm     89% 0.00 in 0 W/m2
05:24 17.3 °F 14.6 °F 30.21 in Calm     89% 0.00 in 0 W/m2
05:30 17.4 °F 14.7 °F 30.21 in Calm     89% 0.00 in 0 W/m2
05:36 17.4 °F 14.7 °F 30.21 in Calm     89% 0.00 in 0 W/m2
05:42 17.4 °F 14.7 °F 30.21 in Calm     89% 0.00 in 0 W/m2
05:48 17.5 °F 14.8 °F 30.21 in Calm     89% 0.00 in 0 W/m2
05:54 17.4 °F 14.7 °F 30.21 in Calm     89% 0.00 in 0 W/m2
06:00 17.4 °F 14.7 °F 30.22 in Calm     89% 0.00 in 0 W/m2
06:06 17.4 °F 14.7 °F 30.22 in Calm     89% 0.00 in 0 W/m2
06:12 17.3 °F 14.6 °F 30.22 in Calm     89% 0.00 in 0 W/m2
06:18 17.2 °F 14.5 °F 30.22 in Calm     89% 0.00 in 0 W/m2
06:24 17.3 °F 14.6 °F 30.22 in Calm     89% 0.00 in 0 W/m2
06:32 17.7 °F 15.3 °F 30.21 in Calm     90% 0.00 in 0 W/m2
06:38 17.6 °F 15.2 °F 30.21 in Calm     90% 0.00 in 0 W/m2
06:44 17.6 °F 15.2 °F 30.21 in Calm     90% 0.00 in 0 W/m2
06:50 17.6 °F 15.2 °F 30.21 in Calm     90% 0.00 in 0 W/m2
06:56 17.6 °F 15.2 °F 30.21 in Calm     90% 0.00 in 0 W/m2
07:02 17.6 °F 15.2 °F 30.21 in Calm     90% 0.00 in 0 W/m2
07:08 17.5 °F 15.1 °F 30.21 in Calm     90% 0.00 in 7 W/m2
07:14 17.5 °F 15.1 °F 30.20 in Calm     90% 0.00 in 11 W/m2
07:20 17.7 °F 15.3 °F 30.20 in Calm     90% 0.00 in 16 W/m2
07:26 17.7 °F 15.3 °F 30.20 in Calm     90% 0.00 in 21 W/m2
07:32 17.9 °F 15.5 °F 30.21 in Calm     90% 0.00 in 25 W/m2
07:38 18.0 °F 15.6 °F 30.21 in Calm     90% 0.00 in 33 W/m2
07:44 18.2 °F 15.8 °F 30.21 in Calm     90% 0.00 in 44 W/m2
07:50 18.6 °F 16.2 °F 30.21 in Calm     90% 0.00 in 40 W/m2
07:56 18.8 °F 16.4 °F 30.21 in Calm     90% 0.00 in 51 W/m2
08:02 19.2 °F 16.7 °F 30.21 in Calm     90% 0.00 in 53 W/m2
08:08 19.6 °F 17.1 °F 30.21 in Calm     90% 0.00 in 56 W/m2
08:14 19.8 °F 17.3 °F 30.21 in Calm     90% 0.00 in 67 W/m2
08:20 20.0 °F 17.5 °F 30.21 in Calm     90% 0.00 in 62 W/m2
08:26 20.4 °F 17.9 °F 30.21 in Calm     90% 0.00 in 54 W/m2
08:32 21.3 °F 18.8 °F 30.20 in Calm     90% 0.00 in 74 W/m2
08:38 22.0 °F 19.8 °F 30.20 in Calm     91% 0.00 in 97 W/m2
08:44 22.7 °F 20.5 °F 30.20 in Calm     91% 0.00 in 102 W/m2
08:50 23.5 °F 21.3 °F 30.20 in Calm     91% 0.00 in 113 W/m2
08:56 24.3 °F 22.1 °F 30.20 in Calm     91% 0.00 in 113 W/m2
09:02 25.1 °F 22.8 °F 30.20 in Calm   1.0 mph 91% 0.00 in 116 W/m2
09:08 25.9 °F 23.6 °F 30.19 in NNW 1.0 mph 2.0 mph 91% 0.00 in 128 W/m2
09:14 26.5 °F 24.2 °F 30.18 in NNW 1.0 mph 1.0 mph 91% 0.00 in 123 W/m2
09:20 27.1 °F 24.8 °F 30.18 in Calm     91% 0.00 in 130 W/m2
09:26 27.6 °F 25.3 °F 30.18 in Calm   2.0 mph 91% 0.00 in 139 W/m2
09:32 28.1 °F 25.8 °F 30.17 in East 2.0 mph 2.0 mph 91% 0.00 in 149 W/m2
09:38 28.7 °F 26.4 °F 30.17 in SSE 2.0 mph 3.0 mph 91% 0.00 in 153 W/m2
09:44 29.2 °F 26.6 °F 30.17 in SE 2.0 mph 4.0 mph 90% 0.00 in 163 W/m2
09:50 29.6 °F 27.0 °F 30.17 in SE 1.0 mph 1.0 mph 90% 0.00 in 165 W/m2
09:56 30.0 °F 27.2 °F 30.17 in SE 1.0 mph 2.0 mph 89% 0.00 in 165 W/m2
10:02 30.4 °F 27.3 °F 30.17 in SE 2.0 mph 2.0 mph 88% 0.00 in 181 W/m2
10:08 30.8 °F 27.4 °F 30.17 in SE 1.0 mph 3.0 mph 87% 0.00 in 185 W/m2
10:14 31.2 °F 27.8 °F 30.17 in SE 1.0 mph 1.0 mph 87% 0.00 in 200 W/m2
10:20 31.7 °F 28.0 °F 30.17 in Calm   1.0 mph 86% 0.00 in 279 W/m2
10:26 32.3 °F 28.3 °F 30.17 in Calm   1.0 mph 85% 0.00 in 207 W/m2
10:32 32.8 °F 28.5 °F 30.17 in Calm   1.0 mph 84% 0.00 in 218 W/m2
10:38 33.0 °F 28.1 °F 30.16 in Calm   1.0 mph 82% 0.00 in 185 W/m2
10:44 33.0 °F 28.1 °F 30.15 in SSE 1.0 mph 3.0 mph 82% 0.00 in 179 W/m2
10:50 32.8 °F 27.9 °F 30.16 in SSE 1.0 mph 1.0 mph 82% 0.00 in 216 W/m2
10:56 32.9 °F 28.0 °F 30.16 in Calm   1.0 mph 82% 0.00 in 218 W/m2
11:02 33.5 °F 28.6 °F 30.16 in Calm     82% 0.00 in 227 W/m2
11:08 34.1 °F 29.2 °F 30.16 in Calm   1.0 mph 82% 0.00 in 265 W/m2
11:14 34.4 °F 28.9 °F 30.16 in Calm     80% 0.00 in 269 W/m2
11:20 34.6 °F 29.1 °F 30.15 in Calm     80% 0.00 in 211 W/m2
11:26 34.7 °F 28.9 °F 30.15 in Calm     79% 0.00 in 188 W/m2
11:32 34.6 °F 28.8 °F 30.15 in Calm   2.0 mph 79% 0.00 in 202 W/m2
11:38 34.4 °F 28.6 °F 30.16 in Calm   2.0 mph 79% 0.00 in 283 W/m2
11:44 34.6 °F 29.1 °F 30.16 in Calm     80% 0.00 in 288 W/m2
11:50 35.1 °F 28.9 °F 30.16 in Calm     78% 0.00 in 267 W/m2
11:56 35.4 °F 29.2 °F 30.16 in Calm     78% 0.00 in 283 W/m2
12:02 35.6 °F 28.8 °F 30.17 in SSE 1.0 mph 2.0 mph 76% 0.00 in 304 W/m2
12:08 36.1 °F 29.3 °F 30.17 in Calm   2.0 mph 76% 0.00 in 322 W/m2
12:14 36.2 °F 28.7 °F 30.17 in Calm   1.0 mph 74% 0.00 in 323 W/m2
12:20 36.4 °F 28.9 °F 30.17 in WSW 1.0 mph 1.0 mph 74% 0.00 in 334 W/m2
12:26 36.8 °F 29.0 °F 30.16 in WSW 1.0 mph 5.0 mph 73% 0.00 in 360 W/m2
12:32 36.8 °F 29.0 °F 30.16 in WSW 1.0 mph 1.0 mph 73% 0.00 in 396 W/m2
12:38 37.2 °F 29.0 °F 30.16 in WSW 1.0 mph 2.0 mph 72% 0.00 in 401 W/m2
12:44 37.4 °F 28.9 °F 30.16 in WSW 1.0 mph 2.0 mph 71% 0.00 in 390 W/m2
12:50 37.8 °F 28.9 °F 30.16 in SW 1.0 mph 1.0 mph 70% 0.00 in 394 W/m2
12:56 37.8 °F 28.9 °F 30.16 in West 2.0 mph 3.0 mph 70% 0.00 in 403 W/m2
13:02 37.6 °F 28.7 °F 30.16 in SSW 3.0 mph 5.0 mph 70% 0.00 in 381 W/m2
13:08 38.1 °F 29.2 °F 30.16 in WSW 2.0 mph 5.0 mph 70% 0.00 in 371 W/m2
13:14 38.4 °F 29.1 °F 30.15 in West 1.0 mph 2.0 mph 69% 0.00 in 390 W/m2
13:20 38.5 °F 29.2 °F 30.15 in WNW 1.0 mph 2.0 mph 69% 0.00 in 422 W/m2
13:26 38.5 °F 28.9 °F 30.15 in WSW 2.0 mph 4.0 mph 68% 0.00 in 436 W/m2
13:32 38.9 °F 28.5 °F 30.15 in West 2.0 mph 2.0 mph 66% 0.00 in 424 W/m2
13:38 38.8 °F 28.8 °F 30.15 in West 2.0 mph 6.0 mph 67% 0.00 in 404 W/m2
13:44 38.8 °F 28.8 °F 30.15 in WSW 2.0 mph 3.0 mph 67% 0.00 in 403 W/m2
13:50 39.0 °F 29.0 °F 30.15 in WSW 2.0 mph 3.0 mph 67% 0.00 in 417 W/m2
13:56 39.2 °F 28.8 °F 30.14 in SW 2.0 mph 4.0 mph 66% 0.00 in 348 W/m2
14:02 39.2 °F 29.2 °F 30.14 in SW 1.0 mph 2.0 mph 67% 0.00 in 297 W/m2
14:08 39.5 °F 29.1 °F 30.14 in West 1.0 mph 2.0 mph 66% 0.00 in 292 W/m2
14:14 39.0 °F 28.6 °F 30.14 in West 2.0 mph 3.0 mph 66% 0.00 in 299 W/m2
14:20 38.8 °F 28.4 °F 30.13 in SW 3.0 mph 3.0 mph 66% 0.00 in 315 W/m2
14:26 38.9 °F 28.9 °F 30.13 in SSW 2.0 mph 5.0 mph 67% 0.00 in 355 W/m2
14:32 39.2 °F 28.8 °F 30.12 in WSW 2.0 mph 3.0 mph 66% 0.00 in 346 W/m2
14:38 39.4 °F 29.0 °F 30.12 in SW 2.0 mph 3.0 mph 66% 0.00 in 304 W/m2
14:44 39.3 °F 28.5 °F 30.11 in SW 1.0 mph 2.0 mph 65% 0.00 in 309 W/m2
14:50 39.3 °F 28.5 °F 30.11 in SW 1.0 mph 1.0 mph 65% 0.00 in 285 W/m2
14:56 38.8 °F 28.4 °F 30.11 in SSW 1.0 mph 3.0 mph 66% 0.00 in 283 W/m2
15:02 39.2 °F 28.8 °F 30.10 in Calm     66% 0.00 in 330 W/m2
15:08 40.0 °F 29.2 °F 30.10 in Calm     65% 0.00 in 323 W/m2
15:14 39.8 °F 28.6 °F 30.10 in SSW 1.0 mph 1.0 mph 64% 0.00 in 309 W/m2
15:20 39.5 °F 28.7 °F 30.10 in SSW 1.0 mph 1.0 mph 65% 0.00 in 316 W/m2
15:26 40.1 °F 28.9 °F 30.09 in SSW 1.0 mph 1.0 mph 64% 0.00 in 288 W/m2
15:32 39.8 °F 28.6 °F 30.09 in SW 1.0 mph 1.0 mph 64% 0.00 in 269 W/m2
15:38 39.9 °F 28.7 °F 30.09 in SW 1.0 mph 2.0 mph 64% 0.00 in 267 W/m2
15:44 39.7 °F 28.5 °F 30.08 in SW 1.0 mph 3.0 mph 64% 0.00 in 276 W/m2
15:50 40.1 °F 28.9 °F 30.08 in Calm     64% 0.00 in 221 W/m2
15:56 39.9 °F 28.7 °F 30.07 in Calm     64% 0.00 in 225 W/m2
16:02 39.8 °F 28.6 °F 30.06 in Calm     64% 0.00 in 221 W/m2
16:08 39.8 °F 28.6 °F 30.06 in Calm     64% 0.00 in 190 W/m2
16:20 40.4 °F 28.8 °F 30.06 in Calm   1.0 mph 63% 0.00 in 188 W/m2
16:26 40.1 °F 28.5 °F 30.06 in Calm   3.0 mph 63% 0.00 in 200 W/m2
16:32 40.0 °F 28.4 °F 30.06 in SW 1.0 mph 1.0 mph 63% 0.00 in 216 W/m2
16:38 39.9 °F 28.3 °F 30.06 in SW 2.0 mph 2.0 mph 63% 0.00 in 190 W/m2
16:44 39.6 °F 28.0 °F 30.05 in SW 1.0 mph 2.0 mph 63% 0.00 in 151 W/m2
16:50 39.8 °F 28.2 °F 30.05 in SW 1.0 mph 1.0 mph 63% 0.00 in 160 W/m2
16:56 39.8 °F 28.6 °F 30.05 in SW 1.0 mph 1.0 mph 64% 0.00 in 146 W/m2
17:02 40.0 °F 28.4 °F 30.05 in Calm   1.0 mph 63% 0.00 in 125 W/m2
17:08 39.9 °F 28.3 °F 30.05 in Calm   1.0 mph 63% 0.00 in 114 W/m2
17:14 39.9 °F 28.3 °F 30.04 in Calm     63% 0.00 in 113 W/m2
17:20 39.9 °F 28.3 °F 30.04 in Calm     63% 0.00 in 105 W/m2
17:26 39.8 °F 28.2 °F 30.04 in Calm     63% 0.00 in 100 W/m2
17:32 39.9 °F 28.3 °F 30.04 in Calm   1.0 mph 63% 0.00 in 91 W/m2
17:38 39.8 °F 28.2 °F 30.04 in Calm   1.0 mph 63% 0.00 in 79 W/m2
17:44 39.7 °F 28.1 °F 30.04 in Calm     63% 0.00 in 79 W/m2
17:50 39.7 °F 28.1 °F 30.03 in Calm     63% 0.00 in 63 W/m2
17:56 39.7 °F 28.1 °F 30.03 in Calm     63% 0.00 in 56 W/m2
18:02 39.5 °F 28.3 °F 30.03 in Calm     64% 0.00 in 49 W/m2
18:08 39.4 °F 28.2 °F 30.03 in Calm   2.0 mph 64% 0.00 in 40 W/m2
18:14 39.3 °F 28.1 °F 30.03 in Calm     64% 0.00 in 30 W/m2
18:20 39.2 °F 28.0 °F 30.03 in Calm     64% 0.00 in 26 W/m2
18:26 39.2 °F 28.0 °F 30.03 in Calm     64% 0.00 in 25 W/m2
18:32 39.1 °F 27.9 °F 30.03 in Calm     64% 0.00 in 28 W/m2
18:38 39.1 °F 27.9 °F 30.03 in Calm     64% 0.00 in 26 W/m2
18:44 39.0 °F 27.8 °F 30.03 in Calm     64% 0.00 in 21 W/m2
18:50 38.9 °F 28.1 °F 30.03 in Calm     65% 0.00 in 16 W/m2
18:56 38.8 °F 28.0 °F 30.02 in Calm     65% 0.00 in 18 W/m2
19:02 38.7 °F 27.9 °F 30.02 in Calm     65% 0.00 in 16 W/m2
19:08 38.6 °F 28.2 °F 30.02 in Calm     66% 0.00 in 11 W/m2
19:14 38.4 °F 28.0 °F 30.02 in Calm     66% 0.00 in 7 W/m2
19:20 38.2 °F 27.8 °F 30.02 in Calm     66% 0.00 in 7 W/m2
19:26 38.0 °F 28.0 °F 30.01 in Calm     67% 0.00 in 0 W/m2
19:32 37.4 °F 28.2 °F 30.01 in Calm     69% 0.00 in 0 W/m2
19:38 36.8 °F 27.9 °F 30.02 in Calm     70% 0.00 in 0 W/m2
19:44 36.5 °F 27.6 °F 30.02 in Calm     70% 0.00 in 0 W/m2
19:50 36.3 °F 27.8 °F 30.02 in Calm     71% 0.00 in 0 W/m2
19:56 36.1 °F 27.9 °F 30.02 in Calm     72% 0.00 in 0 W/m2
20:02 35.8 °F 27.7 °F 30.02 in Calm     72% 0.00 in 0 W/m2
20:08 35.7 °F 27.6 °F 30.02 in Calm     72% 0.00 in 0 W/m2
20:14 35.6 °F 27.5 °F 30.02 in Calm     72% 0.00 in 0 W/m2
20:20 35.6 °F 27.8 °F 30.02 in Calm     73% 0.00 in 0 W/m2
20:26 35.7 °F 27.9 °F 30.03 in Calm     73% 0.00 in 0 W/m2
20:32 35.6 °F 28.1 °F 30.03 in Calm     74% 0.00 in 0 W/m2
20:38 35.5 °F 28.0 °F 30.02 in Calm     74% 0.00 in 0 W/m2
20:44 35.5 °F 28.0 °F 30.02 in Calm     74% 0.00 in 0 W/m2
20:50 35.4 °F 27.9 °F 30.02 in Calm     74% 0.00 in 0 W/m2
20:56 35.3 °F 27.8 °F 30.03 in Calm     74% 0.00 in 0 W/m2
21:02 35.4 °F 28.3 °F 30.03 in Calm     75% 0.00 in 0 W/m2
21:08 35.3 °F 28.2 °F 30.03 in Calm     75% 0.00 in 0 W/m2
21:14 35.2 °F 28.1 °F 30.03 in Calm     75% 0.00 in 0 W/m2
21:20 35.3 °F 28.2 °F 30.03 in Calm     75% 0.00 in 0 W/m2
21:26 35.3 °F 28.2 °F 30.03 in Calm     75% 0.00 in 0 W/m2
21:32 35.4 °F 28.3 °F 30.03 in Calm     75% 0.00 in 0 W/m2
21:38 35.3 °F 28.2 °F 30.03 in Calm     75% 0.00 in 0 W/m2
21:44 35.1 °F 28.0 °F 30.02 in Calm     75% 0.00 in 0 W/m2
21:50 34.9 °F 28.1 °F 30.02 in Calm     76% 0.00 in 0 W/m2
21:56 34.8 °F 28.0 °F 30.02 in Calm     76% 0.00 in 0 W/m2
22:02 34.6 °F 28.1 °F 30.01 in Calm     77% 0.00 in 0 W/m2
22:08 34.4 °F 27.9 °F 30.01 in Calm     77% 0.00 in 0 W/m2
22:14 34.4 °F 27.9 °F 30.01 in Calm     77% 0.00 in 0 W/m2
22:20 34.3 °F 27.8 °F 30.01 in Calm     77% 0.00 in 0 W/m2
22:26 34.2 °F 28.1 °F 30.01 in Calm     78% 0.00 in 0 W/m2
22:32 34.1 °F 28.0 °F 30.01 in Calm     78% 0.00 in 0 W/m2
22:38 34.1 °F 28.0 °F 30.01 in Calm     78% 0.00 in 0 W/m2
22:44 34.0 °F 28.2 °F 30.01 in Calm     79% 0.00 in 0 W/m2
22:50 34.0 °F 27.9 °F 30.01 in Calm     78% 0.00 in 0 W/m2
22:56 33.9 °F 28.1 °F 30.01 in Calm     79% 0.00 in 0 W/m2
23:02 33.7 °F 28.2 °F 30.01 in Calm     80% 0.00 in 0 W/m2
23:08 33.6 °F 27.8 °F 30.00 in Calm     79% 0.00 in 0 W/m2
23:14 33.6 °F 27.8 °F 30.00 in Calm     79% 0.00 in 0 W/m2
23:20 33.6 °F 27.8 °F 30.00 in Calm     79% 0.00 in 0 W/m2
23:26 33.5 °F 27.7 °F 30.00 in Calm     79% 0.00 in 0 W/m2
23:32 33.5 °F 27.7 °F 30.00 in Calm     79% 0.00 in 0 W/m2
23:38 33.5 °F 27.7 °F 30.00 in Calm     79% 0.00 in 0 W/m2
23:44 33.4 °F 27.6 °F 30.00 in Calm     79% 0.00 in 0 W/m2
23:50 33.5 °F 27.7 °F 30.00 in Calm     79% 0.00 in 0 W/m2
23:56 33.6 °F 27.8 °F 30.00 in Calm     79% 0.00 in 0 W/m2
Country Meadow, Clay, NY, USA
Compliments of Weather Underground - 2 mb